createdAt,value
2022-09-15T00:01:01.865Z,100179.22
2022-09-15T00:03:28.870Z,100177.91
2022-09-15T00:05:55.905Z,100181.97
2022-09-15T00:08:23.491Z,100175.16
2022-09-15T00:11:12.098Z,100176.16
2022-09-15T00:13:40.442Z,100169.16
2022-09-15T00:16:08.703Z,100173.56
2022-09-15T00:18:36.519Z,100173.09
2022-09-15T00:21:08.813Z,100188.97
2022-09-15T00:23:36.310Z,100197.72
2022-09-15T00:26:08.240Z,100200.91
2022-09-15T00:28:35.418Z,100215.25
2022-09-15T00:31:06.110Z,100205.09
2022-09-15T00:33:33.199Z,100205.28
2022-09-15T00:36:04.087Z,100211.25
2022-09-15T00:38:31.231Z,100216.59
2022-09-15T00:40:59.177Z,100215.91
2022-09-15T00:43:44.034Z,100215.19
2022-09-15T00:46:12.099Z,100214.81
2022-09-15T00:48:44.222Z,100218.13
2022-09-15T00:51:13.110Z,100214.47
2022-09-15T00:53:41.129Z,100220.59
2022-09-15T00:56:10.265Z,100211.66
2022-09-15T00:59:05.344Z,100214.63
2022-09-15T01:01:32.604Z,100211.78
2022-09-15T01:04:00.223Z,100211.59
2022-09-15T01:06:48.616Z,100206.06
2022-09-15T01:09:23.345Z,100192.25
2022-09-15T01:11:50.434Z,100187.75
2022-09-15T01:14:17.229Z,100183.25
2022-09-15T01:17:10.781Z,100191.53
2022-09-15T01:19:49.963Z,100189.34
2022-09-15T01:22:46.413Z,100192.94
2022-09-15T01:25:40.222Z,100192.59
2022-09-15T01:28:44.514Z,100188.53
2022-09-15T01:31:16.943Z,100180.97
2022-09-15T01:34:07.728Z,100178.97
2022-09-15T01:36:44.821Z,100174.78
2022-09-15T01:39:36.662Z,100171.56
2022-09-15T01:42:07.720Z,100174.88
2022-09-15T01:44:40.123Z,100174.69
2022-09-15T01:47:10.270Z,100164.47
2022-09-15T01:49:46.337Z,100172.28
2022-09-15T01:52:17.187Z,100179.28
2022-09-15T01:54:49.234Z,100172.94
2022-09-15T01:57:23.132Z,100172.09
2022-09-15T01:59:52.056Z,100179.91
2022-09-15T02:02:34.568Z,100175.53
2022-09-15T02:05:16.651Z,100178.00
2022-09-15T02:08:09.829Z,100170.91
2022-09-15T02:10:51.583Z,100170.72
2022-09-15T02:13:26.820Z,100171.72
2022-09-15T02:15:58.141Z,100170.63
2022-09-15T02:18:34.856Z,100172.28
2022-09-15T02:21:23.442Z,100166.31
2022-09-15T02:23:55.130Z,100171.47
2022-09-15T02:26:27.912Z,100161.78
2022-09-15T02:28:58.620Z,100171.28
2022-09-15T02:31:27.189Z,100172.09
2022-09-15T02:33:59.797Z,100169.72
2022-09-15T02:36:29.281Z,100165.22
2022-09-15T02:39:10.338Z,100164.91
2022-09-15T02:41:37.665Z,100170.72
2022-09-15T02:44:04.563Z,100170.53
2022-09-15T02:46:31.770Z,100159.84
2022-09-15T02:48:58.417Z,100165.94
2022-09-15T02:51:25.286Z,100155.63
2022-09-15T02:53:53.329Z,100163.13
2022-09-15T02:56:20.010Z,100157.97
2022-09-15T02:58:46.944Z,100163.25
2022-09-15T03:01:15.923Z,100163.31
2022-09-15T03:03:44.102Z,100169.31
2022-09-15T03:06:18.665Z,100166.25
2022-09-15T03:08:48.486Z,100162.38
2022-09-15T03:11:16.096Z,100171.88
2022-09-15T03:13:42.771Z,100159.91
2022-09-15T03:16:14.799Z,100166.91
2022-09-15T03:18:42.255Z,100166.91
2022-09-15T03:21:13.226Z,100178.78
2022-09-15T03:23:41.427Z,100182.94
2022-09-15T03:26:09.592Z,100182.38
2022-09-15T03:28:37.975Z,100181.72
2022-09-15T03:31:05.630Z,100180.53
2022-09-15T03:33:32.698Z,100194.81
2022-09-15T03:35:59.778Z,100194.81
2022-09-15T03:38:26.601Z,100196.03
2022-09-15T03:40:57.614Z,100188.19
2022-09-15T03:43:24.649Z,100185.97
2022-09-15T03:45:51.568Z,100184.88
2022-09-15T03:48:18.222Z,100178.25
2022-09-15T03:50:44.855Z,100180.13
2022-09-15T03:53:11.606Z,100186.47
2022-09-15T03:55:40.982Z,100177.81
2022-09-15T03:58:07.964Z,100167.78
2022-09-15T04:00:35.138Z,100174.00
2022-09-15T04:03:01.879Z,100181.19
2022-09-15T04:05:28.978Z,100174.19
2022-09-15T04:07:56.018Z,100168.41
2022-09-15T04:10:24.746Z,100174.38
2022-09-15T04:12:52.603Z,100173.31
2022-09-15T04:15:20.838Z,100180.28
2022-09-15T04:17:47.831Z,100177.06
2022-09-15T04:20:17.256Z,100178.25
2022-09-15T04:22:44.953Z,100177.25
2022-09-15T04:25:12.193Z,100189.78
2022-09-15T04:27:39.401Z,100181.75
2022-09-15T04:30:07.599Z,100186.09
2022-09-15T04:32:36.042Z,100181.97
2022-09-15T04:35:04.351Z,100190.16
2022-09-15T04:37:31.663Z,100189.59
2022-09-15T04:39:58.523Z,100195.31
2022-09-15T04:42:25.954Z,100190.34
2022-09-15T04:44:52.627Z,100184.81
2022-09-15T04:47:19.595Z,100190.16
2022-09-15T04:49:46.823Z,100195.31
2022-09-15T04:52:13.701Z,100199.44
2022-09-15T04:54:40.517Z,100195.75
2022-09-15T04:57:07.359Z,100202.50
2022-09-15T04:59:34.206Z,100201.84
2022-09-15T05:02:01.077Z,100201.66
2022-09-15T05:04:27.966Z,100206.38
2022-09-15T05:06:54.682Z,100198.44
2022-09-15T05:09:21.730Z,100197.97
2022-09-15T05:11:48.551Z,100200.28
2022-09-15T05:14:15.810Z,100200.34
2022-09-15T05:16:42.921Z,100202.50
2022-09-15T05:19:11.271Z,100202.13
2022-09-15T05:21:38.547Z,100206.19
2022-09-15T05:24:05.415Z,100205.44
2022-09-15T05:26:32.563Z,100207.84
2022-09-15T05:28:59.350Z,100208.56
2022-09-15T05:31:29.196Z,100208.38
2022-09-15T05:33:56.556Z,100217.41
2022-09-15T05:36:25.454Z,100201.75
2022-09-15T05:38:58.873Z,100210.03
2022-09-15T05:41:27.033Z,100204.22
2022-09-15T05:43:56.938Z,100211.69
2022-09-15T05:46:26.400Z,100201.63
2022-09-15T05:48:56.559Z,100201.94
2022-09-15T05:51:23.973Z,100201.75
2022-09-15T05:53:51.099Z,100209.09
2022-09-15T05:56:18.226Z,100206.78
2022-09-15T05:58:47.511Z,100213.97
2022-09-15T06:01:23.480Z,100208.44
2022-09-15T06:03:51.554Z,100214.22
2022-09-15T06:06:18.655Z,100204.63
2022-09-15T06:08:51.909Z,100210.78
2022-09-15T06:11:27.547Z,100213.31
2022-09-15T06:13:54.499Z,100211.28
2022-09-15T06:16:23.737Z,100210.25
2022-09-15T06:18:52.552Z,100203.88
2022-09-15T06:21:27.091Z,100205.94
2022-09-15T06:23:58.932Z,100213.00
2022-09-15T06:26:27.083Z,100214.25
2022-09-15T06:28:59.212Z,100212.41
2022-09-15T06:31:27.426Z,100204.94
2022-09-15T06:33:56.229Z,100209.97
2022-09-15T06:36:24.906Z,100212.06
2022-09-15T06:38:51.855Z,100214.72
2022-09-15T06:41:18.960Z,100217.78
2022-09-15T06:43:46.749Z,100219.44
2022-09-15T06:46:16.395Z,100232.41
2022-09-15T06:48:47.530Z,100227.25
2022-09-15T06:51:17.309Z,100226.63
2022-09-15T06:53:44.630Z,100229.31
2022-09-15T06:56:16.464Z,100242.28
2022-09-15T06:58:44.628Z,100235.72
2022-09-15T07:01:13.654Z,100238.41
2022-09-15T07:03:42.730Z,100242.53
2022-09-15T07:06:12.272Z,100236.16
2022-09-15T07:08:40.414Z,100241.91
2022-09-15T07:11:08.718Z,100237.81
2022-09-15T07:13:36.280Z,100236.50
2022-09-15T07:16:05.489Z,100243.75
2022-09-15T07:18:32.791Z,100238.19
2022-09-15T07:21:08.380Z,100242.59
2022-09-15T07:23:35.961Z,100233.84
2022-09-15T07:26:29.483Z,100235.81
2022-09-15T07:29:01.029Z,100224.53
2022-09-15T07:31:31.707Z,100232.22
2022-09-15T07:34:02.325Z,100236.81
2022-09-15T07:36:29.809Z,100238.94
2022-09-15T07:38:56.836Z,100238.16
2022-09-15T07:41:27.539Z,100238.63
2022-09-15T07:43:57.101Z,100229.78
2022-09-15T07:46:25.723Z,100245.06
2022-09-15T07:48:57.277Z,100239.09
2022-09-15T07:51:25.059Z,100237.84
2022-09-15T07:53:53.478Z,100232.47
2022-09-15T07:56:21.712Z,100241.03
2022-09-15T07:58:49.283Z,100229.34
2022-09-15T08:01:17.680Z,100241.31
2022-09-15T08:03:49.747Z,100236.31
2022-09-15T08:06:19.891Z,100229.28
2022-09-15T08:08:47.463Z,100226.81
2022-09-15T08:11:19.030Z,100225.97
2022-09-15T08:13:47.285Z,100236.91
2022-09-15T08:16:16.532Z,100245.84
2022-09-15T08:18:44.535Z,100237.22
2022-09-15T08:21:15.480Z,100244.09
2022-09-15T08:23:42.802Z,100234.66
2022-09-15T08:26:14.177Z,100245.81
2022-09-15T08:28:42.315Z,100245.81
2022-09-15T08:31:11.584Z,100240.25
2022-09-15T08:33:43.208Z,100248.47
2022-09-15T08:36:12.193Z,100243.09
2022-09-15T08:38:44.299Z,100251.81
2022-09-15T08:41:16.237Z,100259.66
2022-09-15T08:43:54.875Z,100258.63
2022-09-15T08:46:31.667Z,100253.25
2022-09-15T08:49:10.078Z,100257.38
2022-09-15T08:51:48.420Z,100260.47
2022-09-15T08:54:21.546Z,100266.25
2022-09-15T08:56:49.535Z,100272.06
2022-09-15T08:59:18.119Z,100275.78
2022-09-15T09:02:12.353Z,100275.34
2022-09-15T09:05:30.885Z,100271.44
2022-09-15T09:08:40.479Z,100281.72
2022-09-15T09:11:27.964Z,100264.75
2022-09-15T09:14:09.768Z,100262.38
2022-09-15T09:16:42.170Z,100259.38
2022-09-15T09:19:36.056Z,100256.38
2022-09-15T09:22:11.575Z,100270.22
2022-09-15T09:24:45.885Z,100256.22
2022-09-15T09:27:19.900Z,100256.16
2022-09-15T09:29:51.618Z,100259.97
2022-09-15T09:32:27.479Z,100263.06
2022-09-15T09:34:58.971Z,100264.09
2022-09-15T09:37:27.179Z,100261.59
2022-09-15T09:39:53.841Z,100257.50
2022-09-15T09:42:27.095Z,100255.34
2022-09-15T09:44:54.078Z,100263.19
2022-09-15T09:47:21.612Z,100252.91
2022-09-15T09:49:49.594Z,100256.16
2022-09-15T09:52:36.950Z,100255.94
2022-09-15T09:55:21.355Z,100255.16
2022-09-15T09:57:48.028Z,100249.09
2022-09-15T10:00:35.899Z,100263.84
2022-09-15T10:03:17.751Z,100258.06
2022-09-15T10:05:46.201Z,100254.72
2022-09-15T10:08:17.893Z,100245.56
2022-09-15T10:10:56.040Z,100242.47
2022-09-15T10:13:22.825Z,100254.03
2022-09-15T10:15:59.515Z,100264.19
2022-09-15T10:18:37.383Z,100262.56
2022-09-15T10:21:08.063Z,100255.63
2022-09-15T10:23:36.073Z,100249.81
2022-09-15T10:26:34.742Z,100251.78
2022-09-15T10:29:14.435Z,100247.97
2022-09-15T10:31:42.010Z,100242.13
2022-09-15T10:34:33.160Z,100242.78
2022-09-15T10:37:08.447Z,100242.34
2022-09-15T10:39:48.599Z,100237.22
2022-09-15T10:42:41.936Z,100240.91
2022-09-15T10:45:26.098Z,100241.56
2022-09-15T10:48:03.355Z,100233.56
2022-09-15T10:50:51.220Z,100234.00
2022-09-15T10:53:36.276Z,100235.59
2022-09-15T10:56:24.456Z,100236.66
2022-09-15T10:59:29.547Z,100243.88
2022-09-15T11:02:14.694Z,100227.16
2022-09-15T11:05:20.382Z,100226.28
2022-09-15T11:08:11.417Z,100232.69
2022-09-15T11:11:08.356Z,100235.34
2022-09-15T11:13:46.943Z,100234.28
2022-09-15T11:16:35.019Z,100237.97
2022-09-15T11:19:24.208Z,100241.03
2022-09-15T11:21:57.908Z,100251.63
2022-09-15T11:24:42.470Z,100257.06
2022-09-15T11:27:26.158Z,100264.22
2022-09-15T11:30:28.267Z,100260.88
2022-09-15T11:33:02.479Z,100255.28
2022-09-15T11:35:46.417Z,100253.50
2022-09-15T11:38:48.350Z,100264.63
2022-09-15T11:41:23.437Z,100264.91
2022-09-15T11:44:07.305Z,100261.81
2022-09-15T11:46:51.766Z,100273.34
2022-09-15T11:49:29.911Z,100271.19
2022-09-15T11:52:03.176Z,100265.50
2022-09-15T11:54:39.504Z,100267.25
2022-09-15T11:57:15.730Z,100270.81
2022-09-15T11:59:52.122Z,100263.34
2022-09-15T12:02:49.993Z,100255.75
2022-09-15T12:05:35.731Z,100260.53
2022-09-15T12:08:10.917Z,100250.63
2022-09-15T12:10:41.670Z,100249.00
2022-09-15T12:13:17.451Z,100257.91
2022-09-15T12:15:46.180Z,100254.38
2022-09-15T12:18:39.036Z,100258.91
2022-09-15T12:21:16.711Z,100255.22
2022-09-15T12:24:03.242Z,100258.78
2022-09-15T12:26:34.107Z,100255.75
2022-09-15T12:29:03.245Z,100257.25
2022-09-15T12:31:38.537Z,100259.50
2022-09-15T12:34:37.257Z,100263.75
2022-09-15T12:37:11.596Z,100267.88
2022-09-15T12:39:40.805Z,100255.53
2022-09-15T12:42:10.523Z,100246.31
2022-09-15T12:44:40.906Z,100244.72
2022-09-15T12:47:20.135Z,100235.44
2022-09-15T12:49:49.900Z,100238.22
2022-09-15T12:52:19.549Z,100249.81
2022-09-15T12:54:55.860Z,100243.31
2022-09-15T12:57:31.743Z,100247.00
2022-09-15T13:00:23.603Z,100253.88
2022-09-15T13:02:51.476Z,100256.78
2022-09-15T13:05:43.036Z,100253.19
2022-09-15T13:08:12.764Z,100250.00
2022-09-15T13:10:43.904Z,100260.16
2022-09-15T13:13:15.445Z,100265.63
2022-09-15T13:15:48.931Z,100284.59
2022-09-15T13:18:17.241Z,100252.75
2022-09-15T13:20:54.497Z,100238.34
2022-09-15T13:23:25.403Z,100258.31
2022-09-15T13:25:56.551Z,100276.91
2022-09-15T13:28:24.941Z,100272.47
2022-09-15T13:31:15.742Z,100269.28
2022-09-15T13:40:07.043Z,100243.44
2022-09-15T13:42:54.996Z,100256.97
2022-09-15T13:45:40.209Z,100261.50
2022-09-15T13:48:18.887Z,100255.44
2022-09-15T13:50:59.073Z,100245.03
2022-09-15T13:53:25.765Z,100244.97
2022-09-15T13:55:57.059Z,100236.31
2022-09-15T14:01:14.378Z,100241.88
2022-09-15T14:03:44.040Z,100234.25
2022-09-15T14:06:13.919Z,100241.44
2022-09-15T14:08:43.459Z,100229.41
2022-09-15T14:11:14.511Z,100239.44
2022-09-15T14:13:46.427Z,100247.84
2022-09-15T14:16:34.029Z,100245.88
2022-09-15T14:19:04.294Z,100251.59
2022-09-15T14:21:33.488Z,100251.72
2022-09-15T14:24:06.110Z,100246.69
2022-09-15T14:26:35.733Z,100235.63
2022-09-15T14:29:06.019Z,100224.19
2022-09-15T14:31:39.140Z,100239.41
2022-09-15T14:34:17.444Z,100247.56
2022-09-15T14:36:44.447Z,100245.03
2022-09-15T14:39:23.950Z,100240.47
2022-09-15T14:41:51.226Z,100249.50
2022-09-15T14:47:28.201Z,100256.34
2022-09-15T14:50:31.881Z,100253.97
2022-09-15T14:53:10.335Z,100265.25
2022-09-15T14:55:41.526Z,100263.53
2022-09-15T14:58:27.743Z,100260.63
2022-09-15T15:01:20.448Z,100269.91
2022-09-15T15:04:00.462Z,100254.25
2022-09-15T15:06:55.078Z,100275.06
2022-09-15T15:09:32.066Z,100259.94
2022-09-15T15:12:04.538Z,100264.16
2022-09-15T15:14:31.457Z,100268.34
2022-09-15T15:17:02.170Z,100286.94
2022-09-15T15:19:33.375Z,100279.81
2022-09-15T15:22:26.990Z,100292.50
2022-09-15T15:24:54.151Z,100271.88
2022-09-15T15:27:33.123Z,100291.34
2022-09-15T15:30:26.670Z,100293.22
2022-09-15T15:32:54.130Z,100282.03
2022-09-15T15:35:21.460Z,100283.53
2022-09-15T15:37:49.431Z,100276.06
2022-09-15T15:40:23.468Z,100273.03
2022-09-15T15:43:02.355Z,100272.44
2022-09-15T15:45:31.692Z,100292.34
2022-09-15T15:47:58.570Z,100278.88
2022-09-15T15:50:28.608Z,100305.34
2022-09-15T15:52:55.723Z,100298.94
2022-09-15T15:55:26.866Z,100305.63
2022-09-15T15:57:55.523Z,100302.69
2022-09-15T16:00:33.308Z,100292.75
2022-09-15T16:03:00.093Z,100297.50
2022-09-15T16:05:29.358Z,100276.25
2022-09-15T16:07:59.909Z,100304.41
2022-09-15T16:10:30.938Z,100303.13
2022-09-15T16:12:57.701Z,100295.34
2022-09-15T16:15:24.619Z,100299.38
2022-09-15T16:17:51.327Z,100289.59
2022-09-15T16:20:19.901Z,100299.66
2022-09-15T16:22:46.684Z,100287.78
2022-09-15T16:25:23.314Z,100319.75
2022-09-15T16:27:50.004Z,100305.19
2022-09-15T16:30:16.888Z,100308.94
2022-09-15T16:32:43.659Z,100300.56
2022-09-15T16:35:22.628Z,100305.22
2022-09-15T16:37:49.226Z,100308.78
2022-09-15T16:40:17.909Z,100305.75
2022-09-15T16:42:45.380Z,100316.66
2022-09-15T16:45:35.173Z,100320.00
2022-09-15T16:48:04.960Z,100317.94
2022-09-15T16:50:32.041Z,100321.66
2022-09-15T16:52:59.159Z,100328.84
2022-09-15T16:55:38.283Z,100334.44
2022-09-15T16:58:06.650Z,100337.47
2022-09-15T17:00:41.132Z,100324.00
2022-09-15T17:03:09.149Z,100331.44
2022-09-15T17:05:47.796Z,100339.66
2022-09-15T17:08:16.101Z,100339.22
2022-09-15T17:10:42.998Z,100332.63
2022-09-15T17:13:14.297Z,100337.16
2022-09-15T17:15:41.850Z,100342.09
2022-09-15T17:18:10.157Z,100342.44
2022-09-15T17:20:39.372Z,100342.88
2022-09-15T17:23:28.049Z,100346.50
2022-09-15T17:25:58.535Z,100356.47
2022-09-15T17:28:31.318Z,100353.81
2022-09-15T17:31:02.124Z,100350.63
2022-09-15T17:33:31.251Z,100349.13
2022-09-15T17:35:58.997Z,100346.19
2022-09-15T17:38:25.975Z,100363.34
2022-09-15T17:40:55.265Z,100350.16
2022-09-15T17:43:25.314Z,100355.75
2022-09-15T17:45:54.015Z,100351.81
2022-09-15T17:48:22.267Z,100354.31
2022-09-15T17:50:49.236Z,100352.09
2022-09-15T17:53:21.215Z,100350.00
2022-09-15T17:55:48.579Z,100350.78
2022-09-15T17:58:16.534Z,100350.31
2022-09-15T18:00:44.775Z,100356.47
2022-09-15T18:03:35.081Z,100346.75
2022-09-15T18:06:07.955Z,100353.63
2022-09-15T18:08:36.411Z,100344.06
2022-09-15T18:11:05.228Z,100351.72
2022-09-15T18:13:32.223Z,100348.72
2022-09-15T18:16:07.509Z,100351.66
2022-09-15T18:18:35.756Z,100354.28
2022-09-15T18:21:08.740Z,100359.63
2022-09-15T18:23:37.519Z,100363.13
2022-09-15T18:26:04.333Z,100357.69
2022-09-15T18:28:31.263Z,100366.09
2022-09-15T18:30:58.064Z,100349.09
2022-09-15T18:33:26.139Z,100359.16
2022-09-15T18:35:54.778Z,100365.88
2022-09-15T18:38:22.557Z,100357.16
2022-09-15T18:40:53.487Z,100363.44
2022-09-15T18:43:22.713Z,100362.06
2022-09-15T18:45:50.423Z,100357.72
2022-09-15T18:48:17.131Z,100357.91
2022-09-15T18:50:44.842Z,100362.81
2022-09-15T18:53:12.342Z,100369.06
2022-09-15T18:55:42.090Z,100362.81
2022-09-15T18:58:09.525Z,100362.13
2022-09-15T19:00:36.463Z,100361.16
2022-09-15T19:03:05.320Z,100373.13
2022-09-15T19:05:32.711Z,100364.47
2022-09-15T19:07:59.541Z,100377.28
2022-09-15T19:10:29.339Z,100385.88
2022-09-15T19:12:56.119Z,100389.56
2022-09-15T19:15:24.167Z,100392.47
2022-09-15T19:17:51.143Z,100399.47
2022-09-15T19:20:18.211Z,100397.47
2022-09-15T19:22:46.120Z,100396.72
2022-09-15T19:25:13.547Z,100397.09
2022-09-15T19:27:40.507Z,100398.03
2022-09-15T19:30:10.130Z,100399.50
2022-09-15T19:32:38.332Z,100407.78
2022-09-15T19:35:05.876Z,100403.19
2022-09-15T19:37:37.248Z,100404.47
2022-09-15T19:40:08.721Z,100407.22
2022-09-15T19:42:36.728Z,100399.59
2022-09-15T19:45:03.599Z,100407.69
2022-09-15T19:47:30.480Z,100405.16
2022-09-15T19:49:57.257Z,100412.66
2022-09-15T19:52:24.184Z,100405.84
2022-09-15T19:54:50.920Z,100401.97
2022-09-15T19:57:18.833Z,100410.63
2022-09-15T19:59:45.613Z,100405.94
2022-09-15T20:02:13.756Z,100411.75
2022-09-15T20:07:24.725Z,100412.47
2022-09-15T20:09:53.297Z,100418.72
2022-09-15T20:14:52.800Z,100422.31
2022-09-15T20:17:19.576Z,100421.19
2022-09-15T20:19:46.315Z,100427.38
2022-09-15T20:22:13.282Z,100429.75
2022-09-15T20:24:41.024Z,100426.25
2022-09-15T20:27:09.722Z,100433.59
2022-09-15T20:29:36.596Z,100419.94
2022-09-15T20:32:03.390Z,100431.88
2022-09-15T20:34:30.001Z,100433.72
2022-09-15T20:36:58.031Z,100440.34
2022-09-15T20:39:24.966Z,100430.22
2022-09-15T20:41:52.017Z,100436.03
2022-09-15T20:44:18.708Z,100442.19
2022-09-15T20:46:45.489Z,100447.00
2022-09-15T20:49:12.631Z,100438.16
2022-09-15T20:51:39.628Z,100441.47
2022-09-15T20:54:06.567Z,100443.41
2022-09-15T20:56:35.178Z,100445.81
2022-09-15T20:59:04.135Z,100446.63
2022-09-15T21:01:36.873Z,100451.69
2022-09-15T21:04:05.516Z,100445.16
2022-09-15T21:06:32.970Z,100442.47
2022-09-15T21:09:00.390Z,100435.56
2022-09-15T21:11:28.652Z,100440.44
2022-09-15T21:13:56.274Z,100434.41
2022-09-15T21:16:25.299Z,100437.81
2022-09-15T21:18:53.784Z,100437.09
2022-09-15T21:21:25.996Z,100436.56
2022-09-15T21:23:55.152Z,100444.94
2022-09-15T21:26:27.785Z,100440.44
2022-09-15T21:28:56.106Z,100440.31
2022-09-15T21:31:30.974Z,100437.63
2022-09-15T21:33:58.893Z,100437.81
2022-09-15T21:36:28.480Z,100444.34
2022-09-15T21:38:57.271Z,100440.03
2022-09-15T21:41:27.143Z,100440.75
2022-09-15T21:43:55.578Z,100451.59
2022-09-15T21:46:25.376Z,100455.75
2022-09-15T21:48:52.636Z,100452.25
2022-09-15T21:51:24.637Z,100462.94
2022-09-15T21:53:53.801Z,100465.25
2022-09-15T21:56:21.486Z,100474.81
2022-09-15T21:58:49.046Z,100463.78
2022-09-15T22:01:26.767Z,100474.44
2022-09-15T22:03:59.108Z,100466.44
2022-09-15T22:06:32.007Z,100472.50
2022-09-15T22:09:05.529Z,100472.81
2022-09-15T22:11:34.316Z,100475.19
2022-09-15T22:14:03.235Z,100485.13
2022-09-15T22:16:30.610Z,100476.94
2022-09-15T22:18:58.029Z,100488.78
2022-09-15T22:21:29.068Z,100486.63
2022-09-15T22:23:56.844Z,100486.94
2022-09-15T22:26:29.202Z,100482.97
2022-09-15T22:28:56.350Z,100487.00
2022-09-15T22:31:24.461Z,100491.09
2022-09-15T22:33:51.929Z,100492.59
2022-09-15T22:36:26.466Z,100484.81
2022-09-15T22:38:56.313Z,100488.00
2022-09-15T22:41:25.908Z,100489.66
2022-09-15T22:43:52.897Z,100493.50
2022-09-15T22:46:20.104Z,100485.56
2022-09-15T22:48:48.257Z,100489.88
2022-09-15T22:51:15.596Z,100495.91
2022-09-15T22:53:42.533Z,100490.22
2022-09-15T22:56:20.377Z,100484.41
2022-09-15T22:58:48.632Z,100480.59
2022-09-15T23:01:18.215Z,100481.94
2022-09-15T23:03:47.686Z,100477.63
2022-09-15T23:06:14.749Z,100483.97
2022-09-15T23:08:41.467Z,100486.09
2022-09-15T23:11:13.130Z,100482.63
2022-09-15T23:13:41.366Z,100481.78
2022-09-15T23:16:09.153Z,100481.13
2022-09-15T23:18:36.987Z,100476.63
2022-09-15T23:21:08.958Z,100468.63
2022-09-15T23:23:38.133Z,100475.09
2022-09-15T23:26:06.855Z,100471.94
2022-09-15T23:28:34.136Z,100475.59
2022-09-15T23:31:01.248Z,100467.59
2022-09-15T23:33:31.495Z,100475.41
2022-09-15T23:36:03.020Z,100464.91
2022-09-15T23:38:30.166Z,100467.56
2022-09-15T23:40:57.644Z,100467.75
2022-09-15T23:43:24.350Z,100465.22
2022-09-15T23:45:51.353Z,100462.06
2022-09-15T23:48:18.550Z,100471.06
2022-09-15T23:50:46.836Z,100479.91
2022-09-15T23:53:13.748Z,100476.25
2022-09-15T23:55:40.537Z,100471.56
2022-09-15T23:58:07.400Z,100475.59
